Terminal Aerodrome Forecast
Issued by NWS

Home | Current Version | Previous Version | Text Only | Print | Product List | Glossary On
Versions: 1 2 3 4 5 6 7 8 9 10 11 12 13 14
000
FTUS44 KLZK 291700
TAFHOT
TAF
KHOT 291720Z 2918/3018 VRB05KT P6SM SCT080 SCT250
     FM301200 18005KT P6SM VCSH SCT080 BKN120 PROB30 3015/3018 -RA=

USA.gov is the U.S. government's official web portal to all federal, state and local government web resources and services.